高松空港の過去48時間の天気

高松空港 (Takamatsu)

現在時刻: 7/17 18:30 JST (7/17 09:30 UTC) 以下の時間は現地時間です。

過去48時間のMETAR気象情報
時間 風向 風速(m/s) 視程 気温(℃) 湿度(%) 気圧(hPa) 天気現象
17 18:00 2 10km以上 32 75 1011
17 17:00 3 10km以上 32 67 1011
17 16:00 3 10km以上 33 67 1011
17 15:00 東北東 3 10km以上 33 67 1011
17 14:00 3 10km以上 33 71 1011
17 13:00 東北東 3 10km以上 33 71 1012
17 12:00 3 10km以上 33 67 1012
17 11:00 東北東 3 10km以上 32 63 1013
17 10:00 不定 1 10km以上 31 70 1013
17 09:00 2 10km以上 30 75 1013
17 08:00 不定 1 10km以上 29 74 1013
17 07:00 不定 1 10km以上 27 89 1014
17 06:20 南東 3 10km以上 26 89 1014
RJOT 170900Z 10003KT 060V160 9999 FEW030 BKN/// 32/27 Q1011
RJOT 170800Z 08005KT 020V110 9999 FEW030 BKN/// 32/25 Q1011
RJOT 170700Z 08006KT 9999 FEW030 BKN/// 33/26 Q1011
RJOT 170600Z 07006KT 030V120 9999 FEW030 BKN/// 33/26 Q1011
RJOT 170500Z 09005KT 010V160 9999 FEW030 BKN/// 33/27 Q1011
RJOT 170400Z 07006KT 030V120 9999 FEW030 BKN/// 33/27 Q1012
RJOT 170300Z 08005KT 020V170 9999 FEW030 SCT/// 33/26 Q1012
RJOT 170200Z 06006KT 010V110 9999 FEW030 32/24 Q1013
RJOT 170100Z VRB02KT 9999 FEW030 SCT/// 31/25 Q1013
RJOT 170000Z 35003KT 270V060 9999 FEW030 SCT/// 30/25 Q1013
RJOT 162300Z VRB02KT 9999 FEW030 SCT/// 29/24 Q1013
RJOT 162200Z VRB02KT 9999 FEW030 SCT/// 27/25 Q1014
RJOT 162120Z 14006KT 9999 FEW030 SCT/// 26/24 Q1014 RMK 1CU030 A2994